Time;durP1;ratioP1;P1;durP2;ratioP2;P2;SDS_P1;SDS_P2;PMS_P1;PMS_P2;Temp;Humidity;BMP_temperature;BMP_pressure;BME280_temperature;BME280_humidity;BME280_pressure;Samples;Min_cycle;Max_cycle;Signal;HPM_P1;HPM_P2
2023/06/10 00:00:05;;;;;;;;;;;;;;;21.51;68.08;99430.72;5283556;27;33355;-83
2023/06/10 00:02:39;;;;;;;;;;;;;;;21.58;67.96;99426.47;5303293;27;34017;-84
2023/06/10 00:05:08;;;;;;;;;;;;;;;21.61;67.67;99421.69;5302588;27;33971;-84
2023/06/10 00:07:40;;;;;;;;;;;;;;;21.46;68.23;99420.47;5284274;27;33367;-84
2023/06/10 00:10:10;;;;;;;;;;;;;;;21.54;68.03;99425.94;5285145;27;32799;-84
2023/06/10 00:12:38;;;;;;;;;;;;;;;21.52;67.87;99421.72;5302471;27;33200;-84
2023/06/10 00:15:06;;;;;;;;;;;;;;;21.63;67.42;99418.81;5301779;27;34576;-84
2023/06/10 00:17:38;;;;;;;;;;;;;;;21.68;67.14;99414.69;5284526;27;32080;-84
2023/06/10 00:20:08;;;;;;;;;;;;;;;21.39;68.13;99422.00;5303149;27;32739;-84
2023/06/10 00:22:37;;;;;;;;;;;;;;;21.38;68.33;99414.97;5284752;27;32627;-84
2023/06/10 00:25:05;;;;;;;;;;;;;;;21.47;68.12;99416.78;5302122;27;33842;-84
2023/06/10 00:27:35;;;;;;;;;;;;;;;21.62;67.34;99420.69;5320717;27;34222;-83
2023/06/10 00:30:04;;;;;;;;;;;;;;;21.63;67.04;99417.00;5320395;27;34113;-83
2023/06/10 00:32:31;;;;;;;;;;;;;;;21.43;67.70;99413.53;5320635;27;34552;-83
2023/06/10 00:34:59;;;;;;;;;;;;;;;21.39;67.67;99408.59;5302182;27;33511;-83
2023/06/10 00:37:28;;;;;;;;;;;;;;;21.43;67.61;99416.22;5284010;27;32074;-83
2023/06/10 00:39:56;;;;;;;;;;;;;;;21.44;67.60;99414.37;5302006;27;34121;-83
2023/06/10 00:42:25;;;;;;;;;;;;;;;21.40;68.00;99415.66;5320097;27;34938;-83
2023/06/10 00:44:54;;;;;;;;;;;;;;;21.40;68.02;99421.00;5284685;27;33498;-83
2023/06/10 00:47:21;;;;;;;;;;;;;;;21.41;68.16;99425.38;5283735;27;33343;-83
2023/06/10 00:49:49;;;;;;;;;;;;;;;21.41;68.18;99425.38;5284346;27;33297;-83
2023/06/10 00:52:17;;;;;;;;;;;;;;;21.45;68.24;99416.06;5320680;27;33975;-84
2023/06/10 00:54:44;;;;;;;;;;;;;;;21.35;68.35;99428.66;5284064;27;32910;-84
2023/06/10 00:57:12;;;;;;;;;;;;;;;21.29;68.67;99426.53;5320353;27;34041;-83
2023/06/10 00:59:41;;;;;;;;;;;;;;;21.32;68.84;99432.50;5284177;27;34153;-83
2023/06/10 01:02:09;;;;;;;;;;;;;;;21.40;68.74;99423.69;5282121;27;33950;-83
2023/06/10 01:04:37;;;;;;;;;;;;;;;21.59;67.42;99423.66;5302377;27;33996;-83
2023/06/10 01:07:12;;;;;;;;;;;;;;;21.52;67.42;99421.72;5302511;27;32438;-84
2023/06/10 01:09:54;;;;;;;;;;;;;;;21.47;67.79;99430.19;5320506;27;34338;-84
2023/06/10 01:12:26;;;;;;;;;;;;;;;21.41;68.30;99431.63;5302693;27;34038;-83
2023/06/10 01:14:54;;;;;;;;;;;;;;;21.38;68.18;99431.06;5302302;27;34258;-83
2023/06/10 01:17:22;;;;;;;;;;;;;;;21.37;68.50;99430.22;5302873;27;33736;-84
2023/06/10 01:19:55;;;;;;;;;;;;;;;21.46;68.32;99423.16;5302113;27;33753;-84
2023/06/10 01:22:24;;;;;;;;;;;;;;;21.37;68.64;99419.47;5285270;27;33207;-84
2023/06/10 01:24:52;;;;;;;;;;;;;;;21.32;68.92;99431.66;5302739;27;34860;-84
2023/06/10 01:27:21;;;;;;;;;;;;;;;21.44;68.71;99430.47;5320606;27;32864;-84
2023/06/10 01:29:59;;;;;;;;;;;;;;;21.42;68.70;99432.47;5302849;27;34979;-84
2023/06/10 01:32:28;;;;;;;;;;;;;;;21.42;69.02;99433.31;5284311;27;33341;-83
2023/06/10 01:34:55;;;;;;;;;;;;;;;21.47;68.67;99431.03;5301928;27;34125;-84
2023/06/10 01:37:23;;;;;;;;;;;;;;;21.49;68.79;99420.16;5301931;27;33010;-83
2023/06/10 01:39:51;;;;;;;;;;;;;;;21.55;68.31;99416.88;5284420;27;32952;-83
2023/06/10 01:42:18;;;;;;;;;;;;;;;21.38;68.80;99426.53;5301762;27;33910;-82
2023/06/10 01:44:46;;;;;;;;;;;;;;;21.43;68.91;99424.25;5301707;27;34872;-82
2023/06/10 01:47:13;;;;;;;;;;;;;;;21.52;68.43;99427.91;5302275;27;34030;-83
2023/06/10 01:49:41;;;;;;;;;;;;;;;21.58;68.34;99435.38;5301971;27;33132;-83
2023/06/10 01:52:08;;;;;;;;;;;;;;;21.57;68.41;99430.16;5321782;27;34802;-83
2023/06/10 01:54:35;;;;;;;;;;;;;;;21.60;68.54;99430.72;5283558;27;34775;-83
2023/06/10 01:57:03;;;;;;;;;;;;;;;21.60;68.53;99428.06;5284161;27;33365;-83
2023/06/10 01:59:31;;;;;;;;;;;;;;;21.60;68.71;99424.47;5300287;27;33682;-83
2023/06/10 02:01:58;;;;;;;;;;;;;;;21.65;68.20;99422.22;5282502;27;33864;-83
2023/06/10 02:04:26;;;;;;;;;;;;;;;21.63;68.07;99425.03;5283271;27;33661;-83
2023/06/10 02:06:54;;;;;;;;;;;;;;;21.55;68.66;99424.06;5284215;27;33094;-83
2023/06/10 02:09:22;;;;;;;;;;;;;;;21.51;68.74;99420.88;5265127;27;33319;-83
2023/06/10 02:11:50;;;;;;;;;;;;;;;21.57;68.40;99422.13;5266220;27;33848;-83
2023/06/10 02:14:18;;;;;;;;;;;;;;;21.51;68.56;99420.00;5284069;27;34438;-83
2023/06/10 02:16:46;;;;;;;;;;;;;;;21.53;68.53;99418.03;5283510;27;33466;-84
2023/06/10 02:19:14;;;;;;;;;;;;;;;21.46;68.72;99429.34;5284521;27;35027;-83
2023/06/10 02:21:41;;;;;;;;;;;;;;;21.57;68.28;99424.81;5283731;27;35030;-83
2023/06/10 02:24:09;;;;;;;;;;;;;;;21.60;68.00;99430.72;5265887;27;33058;-84
2023/06/10 02:26:37;;;;;;;;;;;;;;;21.70;67.24;99431.53;5265873;27;31919;-83
2023/06/10 02:29:05;;;;;;;;;;;;;;;21.60;67.31;99436.09;5283423;27;34297;-83
2023/06/10 02:31:35;;;;;;;;;;;;;;;21.54;67.43;99428.59;5283340;27;33485;-83
2023/06/10 02:34:03;;;;;;;;;;;;;;;21.46;67.66;99423.16;5302457;27;34263;-84
2023/06/10 02:36:31;;;;;;;;;;;;;;;21.56;66.99;99421.28;5284073;27;33438;-83
2023/06/10 02:38:59;;;;;;;;;;;;;;;21.58;66.89;99427.31;5302061;27;34299;-83
2023/06/10 02:41:27;;;;;;;;;;;;;;;21.52;67.01;99419.88;5302226;27;34997;-84
2023/06/10 02:43:54;;;;;;;;;;;;;;;21.32;67.55;99420.91;5265403;27;34366;-84
2023/06/10 02:46:23;;;;;;;;;;;;;;;21.29;68.00;99431.91;5302010;27;33635;-83
2023/06/10 02:48:52;;;;;;;;;;;;;;;21.29;67.91;99437.28;5284316;27;34195;-83
2023/06/10 02:51:20;;;;;;;;;;;;;;;21.33;67.96;99428.81;5283342;27;33894;-84
2023/06/10 02:53:49;;;;;;;;;;;;;;;21.26;67.85;99437.56;5283476;27;32606;-83
2023/06/10 02:56:16;;;;;;;;;;;;;;;21.16;68.19;99437.56;5283720;27;32216;-83
2023/06/10 02:58:44;;;;;;;;;;;;;;;21.21;68.25;99441.50;5283161;27;33140;-83
2023/06/10 03:01:12;;;;;;;;;;;;;;;21.26;67.89;99440.22;5275538;27;33623;-82
2023/06/10 03:03:42;;;;;;;;;;;;;;;21.23;68.00;99444.06;5283656;27;34818;-82
2023/06/10 03:06:10;;;;;;;;;;;;;;;21.28;67.59;99435.59;5266332;27;33593;-82
2023/06/10 03:08:38;;;;;;;;;;;;;;;21.32;67.52;99437.87;5265386;27;33734;-83
2023/06/10 03:11:06;;;;;;;;;;;;;;;21.25;67.53;99441.22;5302090;27;34232;-83
2023/06/10 03:13:34;;;;;;;;;;;;;;;21.47;66.46;99440.94;5265924;27;33031;-84
2023/06/10 03:16:03;;;;;;;;;;;;;;;21.32;66.99;99443.25;5283262;27;32532;-83
2023/06/10 03:18:30;;;;;;;;;;;;;;;21.22;67.56;99437.84;5264948;27;33917;-83
2023/06/10 03:20:58;;;;;;;;;;;;;;;21.26;67.78;99434.88;5265021;27;32910;-83
2023/06/10 03:23:27;;;;;;;;;;;;;;;21.27;67.50;99444.59;5283520;27;34307;-83
2023/06/10 03:25:57;;;;;;;;;;;;;;;21.29;67.49;99442.66;5283859;27;34615;-84
2023/06/10 03:28:25;;;;;;;;;;;;;;;21.22;67.66;99443.22;5302138;27;34122;-83
2023/06/10 03:30:52;;;;;;;;;;;;;;;21.14;68.08;99440.41;5265081;27;33655;-83
2023/06/10 03:33:21;;;;;;;;;;;;;;;21.24;67.58;99440.38;5265474;27;34476;-83
2023/06/10 03:35:50;;;;;;;;;;;;;;;21.14;67.80;99447.63;5284104;27;33066;-82
2023/06/10 03:38:18;;;;;;;;;;;;;;;21.18;67.64;99440.97;5264928;27;33330;-83
2023/06/10 03:40:45;;;;;;;;;;;;;;;21.18;67.53;99444.50;5302165;27;34955;-83
2023/06/10 03:43:13;;;;;;;;;;;;;;;21.04;67.99;99450.31;5301985;27;34011;-83
2023/06/10 03:45:41;;;;;;;;;;;;;;;21.16;67.94;99454.50;5265743;27;32122;-83
2023/06/10 03:48:09;;;;;;;;;;;;;;;21.25;67.51;99457.34;5265281;27;33194;-83
2023/06/10 03:50:37;;;;;;;;;;;;;;;21.33;67.09;99457.50;5265739;27;34963;-83
2023/06/10 03:53:05;;;;;;;;;;;;;;;21.26;67.24;99457.19;5265783;27;33668;-83
2023/06/10 03:55:32;;;;;;;;;;;;;;;21.26;67.33;99457.19;5283303;27;32517;-83
2023/06/10 03:58:00;;;;;;;;;;;;;;;21.23;67.54;99449.44;5283852;27;33717;-83
2023/06/10 04:00:28;;;;;;;;;;;;;;;21.34;67.21;99445.78;5301999;27;34311;-85
2023/06/10 04:02:57;;;;;;;;;;;;;;;21.21;67.65;99452.25;5301470;27;32626;-84
2023/06/10 04:05:28;;;;;;;;;;;;;;;21.46;66.95;99447.31;5266319;27;32575;-84
2023/06/10 04:07:57;;;;;;;;;;;;;;;21.53;67.05;99437.66;5302516;27;34606;-84
2023/06/10 04:10:25;;;;;;;;;;;;;;;21.54;67.48;99442.03;5265041;27;33531;-84
2023/06/10 04:12:53;;;;;;;;;;;;;;;21.61;68.30;99435.09;5283407;27;33706;-84
2023/06/10 04:15:21;;;;;;;;;;;;;;;21.42;68.61;99432.47;5284322;27;34290;-84
2023/06/10 04:17:50;;;;;;;;;;;;;;;21.56;68.03;99425.81;5283197;27;34407;-84
2023/06/10 04:20:18;;;;;;;;;;;;;;;21.72;67.83;99426.84;5265334;27;33171;-84
2023/06/10 04:22:46;;;;;;;;;;;;;;;22.02;67.30;99430.25;5301605;27;33947;-84
2023/06/10 04:25:14;;;;;;;;;;;;;;;21.97;67.47;99427.16;5301419;27;33961;-83
2023/06/10 04:27:43;;;;;;;;;;;;;;;22.09;67.38;99428.69;5265285;27;32915;-83
2023/06/10 04:30:11;;;;;;;;;;;;;;;22.27;66.81;99430.59;5301641;27;34924;-83
2023/06/10 04:32:38;;;;;;;;;;;;;;;22.36;66.36;99429.66;5283437;27;33878;-83
2023/06/10 04:35:06;;;;;;;;;;;;;;;22.38;66.29;99433.06;5266114;27;32648;-83
2023/06/10 04:37:34;;;;;;;;;;;;;;;22.48;66.04;99428.47;5284753;27;35168;-83
2023/06/10 04:40:03;;;;;;;;;;;;;;;22.58;65.51;99433.78;5283668;27;34114;-83
2023/06/10 04:42:31;;;;;;;;;;;;;;;22.51;66.10;99432.72;5285107;27;34340;-83
2023/06/10 04:44:58;;;;;;;;;;;;;;;22.70;65.75;99427.19;5283681;27;33357;-83
2023/06/10 04:47:26;;;;;;;;;;;;;;;22.99;65.13;99429.66;5284198;27;32867;-83
2023/06/10 04:49:54;;;;;;;;;;;;;;;23.10;65.03;99420.50;5284109;27;35106;-84
2023/06/10 04:52:22;;;;;;;;;;;;;;;23.10;65.20;99426.72;5284183;27;32998;-84
2023/06/10 04:54:49;;;;;;;;;;;;;;;23.25;64.62;99427.84;5265387;27;32858;-84
2023/06/10 04:57:17;;;;;;;;;;;;;;;23.16;64.68;99431.47;5302684;27;34244;-83
2023/06/10 04:59:44;;;;;;;;;;;;;;;23.32;64.05;99425.38;5265569;27;33828;-83
2023/06/10 05:02:12;;;;;;;;;;;;;;;23.45;63.65;99416.84;5284002;27;32705;-83
2023/06/10 05:04:40;;;;;;;;;;;;;;;23.35;64.13;99424.19;5284695;27;33430;-83
2023/06/10 05:07:07;;;;;;;;;;;;;;;23.01;63.60;99427.66;5281861;27;32940;-83
2023/06/10 05:09:35;;;;;;;;;;;;;;;23.24;62.88;99425.31;5264036;27;33844;-83
2023/06/10 05:12:04;;;;;;;;;;;;;;;23.18;63.76;99429.47;5282475;27;34363;-83
2023/06/10 05:14:31;;;;;;;;;;;;;;;23.23;63.66;99420.94;5263593;27;32243;-83
2023/06/10 05:16:59;;;;;;;;;;;;;;;23.20;63.67;99432.84;5282463;27;34762;-84
2023/06/10 05:19:27;;;;;;;;;;;;;;;23.58;62.82;99436.16;5264718;27;33259;-84
2023/06/10 05:21:54;;;;;;;;;;;;;;;23.55;63.14;99441.88;5300381;27;33185;-84
2023/06/10 05:24:22;;;;;;;;;;;;;;;23.47;62.53;99445.34;5283166;27;32101;-84
2023/06/10 05:26:50;;;;;;;;;;;;;;;22.99;63.51;99441.28;5264871;27;32876;-83
2023/06/10 05:29:18;;;;;;;;;;;;;;;23.34;62.57;99439.53;5264213;27;33407;-83
2023/06/10 05:31:45;;;;;;;;;;;;;;;23.53;62.72;99443.88;5264312;27;33412;-83
2023/06/10 05:34:13;;;;;;;;;;;;;;;23.59;62.96;99445.06;5281852;27;33076;-83
2023/06/10 05:36:40;;;;;;;;;;;;;;;23.70;60.58;99448.41;5263988;27;34447;-83
2023/06/10 05:39:08;;;;;;;;;;;;;;;23.40;62.51;99443.44;5282116;27;33798;-82
2023/06/10 05:41:36;;;;;;;;;;;;;;;23.31;62.82;99441.69;5282402;27;34014;-83
2023/06/10 05:44:04;;;;;;;;;;;;;;;23.39;62.40;99436.34;5281835;27;33035;-83
2023/06/10 05:46:31;;;;;;;;;;;;;;;23.32;62.60;99441.53;5281139;27;33986;-82
2023/06/10 05:48:59;;;;;;;;;;;;;;;22.98;62.96;99441.44;5264108;27;33103;-83
2023/06/10 05:51:28;;;;;;;;;;;;;;;22.90;62.82;99444.06;5280567;27;34195;-84
2023/06/10 05:53:55;;;;;;;;;;;;;;;22.87;63.48;99439.78;5281761;27;32667;-83
2023/06/10 05:56:23;;;;;;;;;;;;;;;22.98;64.21;99439.59;5281020;27;32951;-83
2023/06/10 05:58:50;;;;;;;;;;;;;;;23.65;61.61;99448.03;5263526;27;33092;-83
2023/06/10 06:01:18;;;;;;;;;;;;;;;23.34;61.31;99444.06;5262842;27;34484;-83
2023/06/10 06:03:45;;;;;;;;;;;;;;;23.50;60.30;99439.66;5280014;27;32282;-83
2023/06/10 06:06:13;;;;;;;;;;;;;;;23.48;61.38;99443.50;5278509;27;34998;-83
2023/06/10 06:08:40;;;;;;;;;;;;;;;23.44;61.53;99440.25;5280903;27;33059;-83
2023/06/10 06:11:08;;;;;;;;;;;;;;;23.02;61.86;99440.09;5281402;27;34509;-83
2023/06/10 06:13:35;;;;;;;;;;;;;;;23.71;60.49;99450.06;5299191;27;33773;-83
2023/06/10 06:16:03;;;;;;;;;;;;;;;23.77;60.92;99444.03;5263691;27;32747;-84
2023/06/10 06:18:31;;;;;;;;;;;;;;;23.74;61.12;99441.69;5281597;27;34689;-83
2023/06/10 06:20:58;;;;;;;;;;;;;;;23.91;59.81;99449.84;5280838;27;33145;-83
2023/06/10 06:23:26;;;;;;;;;;;;;;;24.10;58.44;99443.34;5299082;27;34002;-83
2023/06/10 06:25:53;;;;;;;;;;;;;;;24.16;59.99;99446.22;5299926;27;33940;-83
2023/06/10 06:28:22;;;;;;;;;;;;;;;24.28;57.51;99450.34;5263205;27;33998;-83
2023/06/10 06:30:49;;;;;;;;;;;;;;;23.61;59.28;99457.41;5300105;27;34521;-83
2023/06/10 06:33:17;;;;;;;;;;;;;;;23.72;59.44;99449.06;5281284;27;34067;-83
2023/06/10 06:35:45;;;;;;;;;;;;;;;24.42;58.07;99456.16;5263200;27;33437;-83
2023/06/10 06:38:12;;;;;;;;;;;;;;;23.94;57.19;99458.47;5299636;27;33883;-83
2023/06/10 06:40:40;;;;;;;;;;;;;;;24.12;59.08;99457.50;5280703;27;34691;-83
2023/06/10 06:43:07;;;;;;;;;;;;;;;24.67;56.61;99460.59;5262760;27;33114;-83
2023/06/10 06:45:35;;;;;;;;;;;;;;;24.18;57.14;99454.19;5280932;27;34730;-83
2023/06/10 06:48:03;;;;;;;;;;;;;;;24.34;56.92;99454.22;5281176;27;32706;-83
2023/06/10 06:50:30;;;;;;;;;;;;;;;24.50;55.67;99453.50;5299035;27;34579;-83
2023/06/10 06:52:58;;;;;;;;;;;;;;;24.33;57.32;99457.09;5263153;27;32695;-82
2023/06/10 06:55:26;;;;;;;;;;;;;;;23.85;58.54;99455.88;5279022;27;32582;-81
2023/06/10 06:57:53;;;;;;;;;;;;;;;23.87;58.06;99456.56;5261275;27;34452;-80
2023/06/10 07:00:21;;;;;;;;;;;;;;;24.20;57.72;99463.78;5317566;27;34528;-81
2023/06/10 07:02:49;;;;;;;;;;;;;;;24.72;56.23;99465.50;5317083;27;33348;-80
2023/06/10 07:05:16;;;;;;;;;;;;;;;24.30;56.95;99458.25;5260552;27;33075;-80
2023/06/10 07:07:44;;;;;;;;;;;;;;;24.46;58.20;99454.81;5260894;27;34287;-81
2023/06/10 07:10:13;;;;;;;;;;;;;;;25.24;55.60;99451.72;5279262;27;34754;-81
2023/06/10 07:12:41;;;;;;;;;;;;;;;24.92;56.04;99455.22;5297531;27;32176;-80
2023/06/10 07:15:08;;;;;;;;;;;;;;;24.61;55.56;99461.28;5261690;27;33829;-80
2023/06/10 07:17:37;;;;;;;;;;;;;;;24.56;57.03;99462.78;5279905;27;33811;-80
2023/06/10 07:20:05;;;;;;;;;;;;;;;24.49;56.22;99462.56;5297507;27;34168;-81
2023/06/10 07:22:33;;;;;;;;;;;;;;;24.67;56.29;99463.28;5279531;27;32501;-81
2023/06/10 07:25:02;;;;;;;;;;;;;;;24.43;56.90;99463.25;5261786;27;33286;-81
2023/06/10 07:27:29;;;;;;;;;;;;;;;24.80;55.58;99470.09;5279212;27;32793;-80
2023/06/10 07:29:57;;;;;;;;;;;;;;;24.44;56.64;99464.91;5279203;27;34108;-80
2023/06/10 07:32:25;;;;;;;;;;;;;;;24.36;56.47;99464.88;5279863;27;34709;-80
2023/06/10 07:34:53;;;;;;;;;;;;;;;24.00;56.62;99475.84;5260896;27;33132;-80
2023/06/10 07:37:21;;;;;;;;;;;;;;;23.81;57.67;99468.84;5316922;27;33821;-80
2023/06/10 07:39:49;;;;;;;;;;;;;;;24.19;57.26;99472.91;5280346;27;34105;-80
2023/06/10 07:42:16;;;;;;;;;;;;;;;24.07;57.76;99476.91;5279258;27;33166;-80
2023/06/10 07:44:43;;;;;;;;;;;;;;;23.56;58.57;99481.28;5252557;27;33117;-80
2023/06/10 07:47:11;;;;;;;;;;;;;;;23.57;58.37;99471.34;5279605;27;34164;-80
2023/06/10 07:49:39;;;;;;;;;;;;;;;24.18;58.27;99475.78;5279565;27;34690;-80
2023/06/10 07:52:07;;;;;;;;;;;;;;;23.86;57.83;99471.06;5279499;27;32843;-80
2023/06/10 07:54:35;;;;;;;;;;;;;;;24.12;57.76;99471.88;5280577;27;34814;-80
2023/06/10 07:57:03;;;;;;;;;;;;;;;24.53;56.93;99472.88;5297784;27;34700;-80
2023/06/10 07:59:30;;;;;;;;;;;;;;;24.68;56.75;99473.06;5279914;27;33834;-80
2023/06/10 08:01:58;;;;;;;;;;;;;;;24.65;56.70;99473.44;5279891;27;33480;-80
2023/06/10 08:04:27;;;;;;;;;;;;;;;24.96;54.58;99478.19;5279219;27;33272;-81
2023/06/10 08:06:56;;;;;;;;;;;;;;;24.32;57.32;99479.72;5279545;27;32849;-82
2023/06/10 08:09:23;;;;;;;;;;;;;;;24.23;57.01;99474.28;5262745;27;33035;-82
2023/06/10 08:11:51;;;;;;;;;;;;;;;24.51;56.49;99476.75;5280914;27;31824;-82
2023/06/10 08:14:19;;;;;;;;;;;;;;;24.36;56.52;99475.69;5279856;27;32649;-82
2023/06/10 08:16:46;;;;;;;;;;;;;;;24.60;55.48;99470.38;5280126;27;35211;-82
2023/06/10 08:19:14;;;;;;;;;;;;;;;24.38;55.49;99470.97;5298553;27;34164;-81
2023/06/10 08:21:42;;;;;;;;;;;;;;;24.48;55.75;99471.69;5280535;27;32892;-82
2023/06/10 08:24:09;;;;;;;;;;;;;;;24.74;55.05;99477.84;5263305;27;34216;-82
2023/06/10 08:26:38;;;;;;;;;;;;;;;24.70;54.51;99465.69;5298882;27;33590;-82
2023/06/10 08:29:05;;;;;;;;;;;;;;;24.83;55.69;99469.72;5280364;27;34577;-82
2023/06/10 08:31:33;;;;;;;;;;;;;;;24.66;54.74;99469.72;5280167;27;33624;-82
2023/06/10 08:34:01;;;;;;;;;;;;;;;24.73;54.87;99461.78;5262994;27;33259;-82
2023/06/10 08:36:29;;;;;;;;;;;;;;;24.82;53.91;99459.94;5280319;27;34132;-82
2023/06/10 08:38:56;;;;;;;;;;;;;;;25.20;53.41;99456.62;5318331;27;33542;-81
2023/06/10 08:41:23;;;;;;;;;;;;;;;25.31;53.41;99457.31;5280871;27;33875;-82
2023/06/10 08:44:10;;;;;;;;;;;;;;;25.47;52.11;99458.13;5280932;27;33982;-82
2023/06/10 08:46:37;;;;;;;;;;;;;;;25.59;52.75;99457.75;5299412;27;34943;-82
2023/06/10 08:49:06;;;;;;;;;;;;;;;25.21;52.65;99452.94;5262471;27;32795;-82
2023/06/10 08:51:34;;;;;;;;;;;;;;;25.33;52.46;99456.12;5299392;27;33613;-81
2023/06/10 08:54:22;;;;;;;;;;;;;;;25.53;52.73;99452.03;5280491;27;35020;-82
2023/06/10 08:56:52;;;;;;;;;;;;;;;25.66;50.70;99443.41;5318187;27;33916;-81
2023/06/10 08:59:20;;;;;;;;;;;;;;;25.96;48.66;99449.09;5280579;27;34209;-82
2023/06/10 09:01:48;;;;;;;;;;;;;;;25.92;47.74;99440.50;5263005;27;33582;-82
2023/06/10 09:04:17;;;;;;;;;;;;;;;25.81;48.43;99440.00;5280679;27;34008;-83
2023/06/10 09:06:46;;;;;;;;;;;;;;;25.67;50.90;99436.97;5263070;27;33603;-83
2023/06/10 09:09:14;;;;;;;;;;;;;;;25.97;49.04;99437.25;5281198;27;35144;-81
2023/06/10 09:11:44;;;;;;;;;;;;;;;26.18;48.74;99425.84;5280167;27;33476;-80
2023/06/10 09:14:13;;;;;;;;;;;;;;;26.15;48.19;99429.72;5299237;27;34371;-81
2023/06/10 09:16:40;;;;;;;;;;;;;;;26.41;48.67;99424.03;5299342;27;33873;-81
2023/06/10 09:19:08;;;;;;;;;;;;;;;26.48;47.24;99418.75;5280067;27;33880;-81
2023/06/10 09:21:37;;;;;;;;;;;;;;;26.54;48.78;99415.38;5262678;27;32819;-81
2023/06/10 09:24:05;;;;;;;;;;;;;;;27.07;44.92;99413.59;5299134;27;33538;-81
2023/06/10 09:26:32;;;;;;;;;;;;;;;27.12;45.70;99413.94;5262764;27;33116;-81
2023/06/10 09:29:04;;;;;;;;;;;;;;;27.04;46.72;99413.97;5263026;27;33345;-81
2023/06/10 09:31:34;;;;;;;;;;;;;;;26.71;46.09;99414.22;5281145;27;31949;-81
2023/06/10 09:34:09;;;;;;;;;;;;;;;26.95;46.60;99410.47;5262627;27;33037;-81
2023/06/10 09:36:37;;;;;;;;;;;;;;;27.30;46.28;99403.59;5298792;27;33480;-81
2023/06/10 09:39:06;;;;;;;;;;;;;;;27.29;45.85;99401.91;5280590;27;34343;-82
2023/06/10 09:41:37;;;;;;;;;;;;;;;27.37;44.74;99411.00;5262594;27;33097;-81
2023/06/10 09:44:11;;;;;;;;;;;;;;;27.46;45.66;99399.87;5298792;27;34774;-81
2023/06/10 09:46:38;;;;;;;;;;;;;;;27.54;43.30;99407.09;5281564;27;33967;-81
2023/06/10 09:49:06;;;;;;;;;;;;;;;27.87;42.71;99404.03;5280127;27;34015;-81
2023/06/10 09:51:33;;;;;;;;;;;;;;;27.94;43.95;99407.69;5280809;27;32776;-81
2023/06/10 09:54:02;;;;;;;;;;;;;;;27.68;41.59;99399.97;5280913;27;32922;-81
2023/06/10 09:56:36;;;;;;;;;;;;;;;27.42;42.27;99395.00;5280856;27;34961;-81
2023/06/10 09:59:06;;;;;;;;;;;;;;;27.33;44.01;99394.25;5280679;27;34035;-81
2023/06/10 10:01:34;;;;;;;;;;;;;;;27.21;45.17;99404.72;5299569;27;32400;-81
2023/06/10 10:04:02;;;;;;;;;;;;;;;27.51;42.78;99393.91;5262699;27;33620;-81
2023/06/10 10:06:30;;;;;;;;;;;;;;;27.27;45.24;99392.28;5280657;27;34326;-81
2023/06/10 10:08:57;;;;;;;;;;;;;;;27.75;41.52;99395.53;5299312;27;34510;-81
2023/06/10 10:11:28;;;;;;;;;;;;;;;27.70;41.48;99398.75;5281042;27;33662;-81
2023/06/10 10:13:56;;;;;;;;;;;;;;;27.79;41.16;99392.25;5299368;27;34202;-81
2023/06/10 10:16:27;;;;;;;;;;;;;;;27.36;43.84;99401.19;5281112;27;34202;-81
2023/06/10 10:18:56;;;;;;;;;;;;;;;26.85;46.94;99398.22;5259692;27;33795;-81
2023/06/10 10:21:25;;;;;;;;;;;;;;;27.10;46.79;99391.56;5277461;27;33059;-82
2023/06/10 10:23:55;;;;;;;;;;;;;;;27.14;46.68;99395.59;5277742;27;34043;-83
2023/06/10 10:26:23;;;;;;;;;;;;;;;27.22;46.35;99398.25;5277883;27;34246;-83
2023/06/10 10:28:53;;;;;;;;;;;;;;;27.11;47.66;99398.72;5259592;27;33066;-83
2023/06/10 10:31:21;;;;;;;;;;;;;;;27.14;47.86;99394.78;5258984;27;32121;-82
2023/06/10 10:33:56;;;;;;;;;;;;;;;26.77;48.73;99396.41;5240923;27;34156;-82
2023/06/10 10:36:24;;;;;;;;;;;;;;;26.64;49.02;99397.00;5296675;27;34236;-82
2023/06/10 10:38:52;;;;;;;;;;;;;;;27.26;46.24;99393.31;5277716;27;34362;-82
2023/06/10 10:41:20;;;;;;;;;;;;;;;27.11;46.36;99393.28;5277350;27;33160;-82
2023/06/10 10:43:48;;;;;;;;;;;;;;;26.50;47.78;99395.09;5276506;27;34835;-82
2023/06/10 10:46:17;;;;;;;;;;;;;;;26.27;49.40;99395.84;5259333;27;34045;-82
2023/06/10 10:48:44;;;;;;;;;;;;;;;25.90;50.00;99393.81;5259166;27;34805;-82
2023/06/10 10:51:12;;;;;;;;;;;;;;;25.72;51.60;99387.78;5276865;27;32917;-82
2023/06/10 10:53:39;;;;;;;;;;;;;;;25.53;52.11;99391.72;5239422;27;32686;-82
2023/06/10 10:56:08;;;;;;;;;;;;;;;25.36;52.61;99395.50;5240847;27;33205;-82
2023/06/10 10:58:36;;;;;;;;;;;;;;;24.97;54.15;99397.03;5241060;27;34209;-82
2023/06/10 11:01:10;;;;;;;;;;;;;;;25.56;52.07;99388.69;5295990;27;34376;-82
2023/06/10 11:03:42;;;;;;;;;;;;;;;25.61;51.31;99389.00;5258420;27;33755;-82
2023/06/10 11:06:17;;;;;;;;;;;;;;;25.84;50.06;99385.59;5257677;27;34506;-82
2023/06/10 11:08:46;;;;;;;;;;;;;;;25.91;49.64;99381.16;5240644;27;33078;-82
2023/06/10 11:11:25;;;;;;;;;;;;;;;25.97;48.93;99373.19;5239750;27;32425;-82
2023/06/10 11:14:04;;;;;;;;;;;;;;;25.87;49.75;99371.69;5258244;27;33357;-82
2023/06/10 11:16:41;;;;;;;;;;;;;;;25.72;48.97;99371.56;5259121;27;32908;-82
2023/06/10 11:19:09;;;;;;;;;;;;;;;25.57;49.66;99373.31;5317760;27;33872;-83
2023/06/10 11:21:56;;;;;;;;;;;;;;;25.75;49.87;99363.09;5261892;27;34176;-82
2023/06/10 11:24:24;;;;;;;;;;;;;;;26.22;48.67;99365.78;5298257;27;33990;-82
2023/06/10 11:26:51;;;;;;;;;;;;;;;26.07;50.63;99366.72;5262242;27;32574;-82
2023/06/10 11:29:20;;;;;;;;;;;;;;;25.92;49.95;99366.59;5298977;27;34078;-83
2023/06/10 11:31:51;;;;;;;;;;;;;;;26.19;49.64;99366.13;5299335;27;33354;-83
2023/06/10 11:34:26;;;;;;;;;;;;;;;26.47;47.43;99361.06;5281035;27;34031;-83
2023/06/10 11:36:54;;;;;;;;;;;;;;;26.44;46.34;99353.31;5299643;27;34613;-82
2023/06/10 11:39:24;;;;;;;;;;;;;;;26.43;48.41;99361.59;5263039;27;33133;-83
2023/06/10 11:41:51;;;;;;;;;;;;;;;26.92;47.55;99353.09;5281661;27;32585;-82
2023/06/10 11:44:19;;;;;;;;;;;;;;;27.42;45.57;99349.75;5282107;27;33712;-82
2023/06/10 11:46:51;;;;;;;;;;;;;;;27.26;45.48;99345.37;5300636;27;33891;-82
2023/06/10 11:49:20;;;;;;;;;;;;;;;27.67;44.21;99347.59;5264001;27;34337;-82
2023/06/10 11:51:51;;;;;;;;;;;;;;;28.34;41.88;99343.88;5281609;27;32405;-82
2023/06/10 11:54:19;;;;;;;;;;;;;;;27.80;43.10;99346.97;5282192;27;32847;-83
2023/06/10 11:56:47;;;;;;;;;;;;;;;27.84;42.09;99336.59;5281499;27;33206;-82
2023/06/10 11:59:14;;;;;;;;;;;;;;;28.28;42.22;99337.31;5281331;27;33916;-82
2023/06/10 12:01:45;;;;;;;;;;;;;;;28.48;41.56;99332.09;5281474;27;33775;-83
2023/06/10 12:04:15;;;;;;;;;;;;;;;28.54;40.96;99325.09;5282060;27;35085;-83
2023/06/10 12:06:49;;;;;;;;;;;;;;;28.78;42.57;99329.28;5263731;27;34135;-82
2023/06/10 12:09:24;;;;;;;;;;;;;;;29.35;39.42;99328.25;5263436;27;33217;-83
2023/06/10 12:12:08;;;;;;;;;;;;;;;28.83;40.55;99327.66;5281719;27;33169;-82
2023/06/10 12:14:53;;;;;;;;;;;;;;;29.02;40.03;99328.03;5299457;27;33274;-82
2023/06/10 12:17:22;;;;;;;;;;;;;;;28.60;40.69;99318.88;5319284;27;35062;-83
2023/06/10 12:19:50;;;;;;;;;;;;;;;28.95;40.61;99319.81;5246126;27;32611;-82
2023/06/10 12:22:19;;;;;;;;;;;;;;;28.73;41.42;99327.12;5262418;27;32851;-82
2023/06/10 12:24:59;;;;;;;;;;;;;;;28.21;41.55;99325.56;5282060;27;33891;-82
2023/06/10 12:27:29;;;;;;;;;;;;;;;28.44;43.43;99324.53;5299216;27;34074;-83
2023/06/10 12:30:02;;;;;;;;;;;;;;;28.67;42.04;99324.34;5262734;27;32816;-82
2023/06/10 12:32:37;;;;;;;;;;;;;;;27.62;44.50;99328.34;5263137;27;32602;-82
2023/06/10 12:35:06;;;;;;;;;;;;;;;27.64;44.58;99318.16;5299148;27;34921;-83
2023/06/10 12:37:34;;;;;;;;;;;;;;;27.33;45.03;99315.63;5262217;27;33246;-82
2023/06/10 12:40:05;;;;;;;;;;;;;;;27.45;44.22;99313.31;5280425;27;33772;-83
2023/06/10 12:42:35;;;;;;;;;;;;;;;27.15;44.77;99313.28;5262491;27;33987;-82
2023/06/10 12:45:03;;;;;;;;;;;;;;;27.11;44.21;99311.12;5262309;27;34618;-83
2023/06/10 12:47:34;;;;;;;;;;;;;;;26.86;45.96;99307.78;5279779;27;35006;-83
2023/06/10 12:50:04;;;;;;;;;;;;;;;26.71;47.48;99308.59;5280873;27;33631;-83
2023/06/10 12:52:32;;;;;;;;;;;;;;;26.92;46.05;99297.06;5280263;27;32610;-83
2023/06/10 12:55:00;;;;;;;;;;;;;;;27.34;45.53;99292.91;5279860;27;33424;-83